Metlakatla, AK

7:53 AM AKDT on April 26, 2017 (GMT -0800)
Centennial Plant | | Change Station

Elev 62 ft 55.12 °N, 131.56 °W | Updated 27 seconds ago

Rain
Rain
51.1 °F
Feels Like 51.1 °F
N
7.3
Wind Variable Wind from ESE

Today
High -- | Low -- °F
--% Chance of Precip.
Yesterday
High -- | Low -- °F
Precip. -- in
Pressure 29.46 in
Visibility 10.0 miles
Clouds Few 2700 ft
Mostly Cloudy 5000 ft
Overcast 6500 ft
Dew Point 40 °F
Humidity 65%
Rainfall 0.07 in
Snow Depth Not available.
5:15 AM 8:13 PM
New Moon, 0% visible
METAR PANT 261453Z AUTO 13007KT 10SM -RA FEW027 BKN050 OVC065 09/06 A2945 RMK AO2 RAE1354B18 SLP974 P0000 60001 T00940061 53005 TSNO
Pressure 29.46 in
Visibility 10.0 miles
Clouds Few 2700 ft
Mostly Cloudy 5000 ft
Overcast 6500 ft
Dew Point 40 °F
Humidity 65%
Rainfall 0.07 in
Snow Depth Not available.
5:15 AM 8:13 PM
New Moon, 0% visible
METAR PANT 261453Z AUTO 13007KT 10SM -RA FEW027 BKN050 OVC065 09/06 A2945 RMK AO2 RAE1354B18 SLP974 P0000 60001 T00940061 53005 TSNO

Get Severe Weather Alerts

Thanks for signing up!

Be on the lookout for a verification email in your inbox.

You'll start receiving the daily forecast at 8 AM.

×

10-Day Weather Forecast

Almanac

Astronomy

Apr. 26, 2017 Rise Set
Actual Time
Civil Twilight
Nautical Twilight
Astronomical Twilight
Moon
Length of Visible Light
Length of Day
Tomorrow will be .
, % of the Moon is Illuminated

Today's Extremes

State Highs State Lows

Community

WunderPhotos

WunderBlog® & News

Nearby

Air Quality

  Air Quality AQ Index Pollutant
Not available.

Snow Depth

Station Depth Elevation

Earthquake Activity

City Distance Mag. Time & Date
Minimum magnitude displayed is 2.5.

Coastal Water Temperatures

Place Temperature

Stations

Nearby Weather Stations

Station Location Temp. Windchill Dew Point Humidity Wind Precip. Elev Updated Type
                   

Watches & Warnings

There are currently no watches in effect.